Driscoll, North Dakota
Current Conditions -  °F | °C
As of 7:52 AM on Thursday 30 Oct 2014 (Local Time) from KBIS Reporting Station
Clear Clear  
Wind Chill: 23°   Ceiling: Unl
Heat Index: 32°   Visibility: 10mi
Dew Point: 30°   Wind: 12mph
Humidity: 92%   Direction: 330°NNW
Pressure: 30.23"   Gusts: NA
Location:  46.84°N, 100.14°W
Report Text: KBIS 301252Z 33010KT 10SM CLR 00/M01 A3023 RMK AO2 SLP252 T00001011
Loading
Personal Weather Stations






























Interactive Weather Map
Tropical Storm Tracking
New forecast layout! Learn more

10-Day Weather Forecast

Advertisements
Track Severe Weather on mobile